createdAt,value
2023-02-21T00:00:05.065Z,94.03
2023-02-21T00:02:57.503Z,94.07
2023-02-21T00:05:43.999Z,94.11
2023-02-21T00:08:31.976Z,94.40
2023-02-21T00:11:23.775Z,94.28
2023-02-21T00:14:10.151Z,94.52
2023-02-21T00:16:56.884Z,94.92
2023-02-21T00:19:43.767Z,95.25
2023-02-21T00:22:31.104Z,94.97
2023-02-21T00:25:19.085Z,94.77
2023-02-21T00:28:05.266Z,94.95
2023-02-21T00:30:51.645Z,95.47
2023-02-21T00:33:38.834Z,95.34
2023-02-21T00:36:27.085Z,95.07
2023-02-21T00:39:13.110Z,95.28
2023-02-21T00:41:59.045Z,95.17
2023-02-21T00:44:45.084Z,94.99
2023-02-21T00:47:32.238Z,94.91
2023-02-21T00:50:22.841Z,94.84
2023-02-21T00:53:08.633Z,94.89
2023-02-21T00:55:58.847Z,94.76
2023-02-21T00:58:44.458Z,94.39
2023-02-21T01:01:30.145Z,94.92
2023-02-21T01:04:17.033Z,94.47
2023-02-21T01:07:05.345Z,94.94
2023-02-21T01:09:52.310Z,94.79
2023-02-21T01:12:39.269Z,94.32
2023-02-21T01:15:25.139Z,94.50
2023-02-21T01:18:10.516Z,94.55
2023-02-21T01:20:56.280Z,94.27
2023-02-21T01:23:42.852Z,94.55
2023-02-21T01:26:29.961Z,94.72
2023-02-21T01:29:17.256Z,94.81
2023-02-21T01:32:03.205Z,94.99
2023-02-21T01:34:51.611Z,94.53
2023-02-21T01:37:44.079Z,94.66
2023-02-21T01:40:35.650Z,94.11
2023-02-21T01:43:32.762Z,94.18
2023-02-21T01:46:18.989Z,94.10
2023-02-21T01:49:06.886Z,94.08
2023-02-21T01:51:55.822Z,93.77
2023-02-21T01:54:43.692Z,94.02
2023-02-21T01:57:36.607Z,94.33
2023-02-21T02:00:25.731Z,94.27
2023-02-21T02:03:17.108Z,93.85
2023-02-21T02:06:09.592Z,93.30
2023-02-21T02:08:55.396Z,93.42
2023-02-21T02:12:00.804Z,93.71
2023-02-21T02:15:02.135Z,93.43
2023-02-21T02:17:42.151Z,93.63
2023-02-21T02:20:48.937Z,93.58
2023-02-21T02:23:52.612Z,93.43
2023-02-21T02:27:05.346Z,93.88
2023-02-21T02:30:04.657Z,93.19
2023-02-21T02:32:42.354Z,92.95
2023-02-21T02:35:13.813Z,92.89
2023-02-21T02:37:50.909Z,92.40
2023-02-21T02:40:29.717Z,92.53
2023-02-21T02:43:05.238Z,92.20
2023-02-21T02:45:38.676Z,92.15
2023-02-21T02:48:11.345Z,91.76
2023-02-21T02:50:41.239Z,91.84
2023-02-21T02:53:15.477Z,92.26
2023-02-21T02:55:49.034Z,92.11
2023-02-21T02:58:19.066Z,92.66
2023-02-21T03:00:52.652Z,92.46
2023-02-21T03:03:40.923Z,92.22
2023-02-21T03:06:22.552Z,92.34
2023-02-21T03:08:55.075Z,92.49
2023-02-21T03:11:26.111Z,92.03
2023-02-21T03:14:01.468Z,92.55
2023-02-21T03:16:33.573Z,92.66
2023-02-21T03:19:05.479Z,91.86
2023-02-21T03:21:41.158Z,91.63
2023-02-21T03:24:13.022Z,91.33
2023-02-21T03:26:46.535Z,91.51
2023-02-21T03:29:36.246Z,90.92
2023-02-21T03:32:12.807Z,90.54
2023-02-21T03:34:44.105Z,90.63
2023-02-21T03:37:25.027Z,90.75
2023-02-21T03:39:53.553Z,90.51
2023-02-21T03:42:21.908Z,90.33
2023-02-21T03:44:50.002Z,89.99
2023-02-21T03:47:20.328Z,90.30
2023-02-21T03:49:49.710Z,90.16
2023-02-21T03:52:20.304Z,89.90
2023-02-21T03:54:48.767Z,90.03
2023-02-21T03:57:21.728Z,89.64
2023-02-21T03:59:52.226Z,90.06
2023-02-21T04:02:21.884Z,89.99
2023-02-21T04:04:51.585Z,89.76
2023-02-21T04:07:23.608Z,89.24
2023-02-21T04:09:52.592Z,89.39
2023-02-21T04:12:30.346Z,89.00
2023-02-21T04:14:58.814Z,88.59
2023-02-21T04:17:28.114Z,87.87
2023-02-21T04:19:57.305Z,87.78
2023-02-21T04:22:27.879Z,88.12
2023-02-21T04:24:56.295Z,87.85
2023-02-21T04:27:27.007Z,86.87
2023-02-21T04:29:57.280Z,87.49
2023-02-21T04:32:25.770Z,86.89
2023-02-21T04:34:54.145Z,87.10
2023-02-21T04:37:22.702Z,87.35
2023-02-21T04:39:52.169Z,87.16
2023-02-21T04:42:21.294Z,86.88
2023-02-21T04:44:59.623Z,86.66
2023-02-21T04:47:29.096Z,86.97
2023-02-21T04:49:59.677Z,87.30
2023-02-21T04:52:27.892Z,86.87
2023-02-21T04:54:58.876Z,87.20
2023-02-21T04:57:29.917Z,88.05
2023-02-21T04:59:59.212Z,88.06
2023-02-21T05:02:27.992Z,89.49
2023-02-21T05:04:56.459Z,90.48
2023-02-21T05:07:24.450Z,91.17
2023-02-21T05:09:54.581Z,92.03
2023-02-21T05:12:23.843Z,92.14
2023-02-21T05:14:52.700Z,92.61
2023-02-21T05:17:22.018Z,92.80
2023-02-21T05:19:50.318Z,92.71
2023-02-21T05:22:21.048Z,93.34
2023-02-21T05:24:50.723Z,93.38
2023-02-21T05:27:23.132Z,93.57
2023-02-21T05:29:55.388Z,93.54
2023-02-21T05:32:29.731Z,93.88
2023-02-21T05:34:58.093Z,93.91
2023-02-21T05:37:29.319Z,94.23
2023-02-21T05:40:01.444Z,94.27
2023-02-21T05:42:30.514Z,94.38
2023-02-21T05:45:00.251Z,94.19
2023-02-21T05:47:29.545Z,94.47
2023-02-21T05:50:01.710Z,94.54
2023-02-21T05:52:30.126Z,94.93
2023-02-21T05:55:01.153Z,95.51
2023-02-21T05:57:32.237Z,95.00
2023-02-21T06:00:02.154Z,94.93
2023-02-21T06:02:40.544Z,94.72
2023-02-21T06:05:10.967Z,94.16
2023-02-21T06:07:41.923Z,93.80
2023-02-21T06:10:10.806Z,94.36
2023-02-21T06:12:39.412Z,94.48
2023-02-21T06:15:10.111Z,95.03
2023-02-21T06:17:41.165Z,95.23
2023-02-21T06:20:12.783Z,95.33
2023-02-21T06:22:41.292Z,94.94
2023-02-21T06:25:09.572Z,95.36
2023-02-21T06:27:38.155Z,94.92
2023-02-21T06:30:12.921Z,95.30
2023-02-21T06:32:43.300Z,94.92
2023-02-21T06:35:13.370Z,95.13
2023-02-21T06:37:43.615Z,95.18
2023-02-21T06:40:14.252Z,94.68
2023-02-21T06:42:42.212Z,94.91
2023-02-21T06:45:13.015Z,94.90
2023-02-21T06:47:41.086Z,94.31
2023-02-21T06:50:10.550Z,95.10
2023-02-21T06:52:38.881Z,95.10
2023-02-21T06:55:08.547Z,94.57
2023-02-21T06:57:36.786Z,94.90
2023-02-21T07:00:05.635Z,95.17
2023-02-21T07:02:35.071Z,95.14
2023-02-21T07:05:03.501Z,95.47
2023-02-21T07:07:31.677Z,95.11
2023-02-21T07:10:01.444Z,95.63
2023-02-21T07:12:29.426Z,96.26
2023-02-21T07:14:57.474Z,95.41
2023-02-21T07:17:26.214Z,95.65
2023-02-21T07:19:55.914Z,95.71
2023-02-21T07:22:26.152Z,94.64
2023-02-21T07:24:54.630Z,94.81
2023-02-21T07:27:24.482Z,94.88
2023-02-21T07:29:52.511Z,95.10
2023-02-21T07:34:50.653Z,95.24
2023-02-21T07:37:19.947Z,95.66
2023-02-21T07:39:50.360Z,95.65
2023-02-21T07:42:18.618Z,95.03
2023-02-21T07:44:47.895Z,94.34
2023-02-21T07:47:16.030Z,94.28
2023-02-21T07:49:43.957Z,94.52
2023-02-21T07:52:13.355Z,94.43
2023-02-21T07:54:44.881Z,93.16
2023-02-21T07:57:13.586Z,92.85
2023-02-21T07:59:43.731Z,91.61
2023-02-21T08:02:12.655Z,92.50
2023-02-21T08:04:43.228Z,91.39
2023-02-21T08:07:11.769Z,92.41
2023-02-21T08:09:43.653Z,92.39
2023-02-21T08:12:12.877Z,90.83
2023-02-21T08:14:41.806Z,90.43
2023-02-21T08:17:10.341Z,90.58
2023-02-21T08:19:38.230Z,88.98
2023-02-21T08:22:06.539Z,89.75
2023-02-21T08:24:34.527Z,89.56
2023-02-21T08:27:04.541Z,88.60
2023-02-21T08:29:32.547Z,88.39
2023-02-21T08:32:00.839Z,87.58
2023-02-21T08:34:32.759Z,86.97
2023-02-21T08:37:01.193Z,85.51
2023-02-21T08:39:32.015Z,85.36
2023-02-21T08:41:59.893Z,84.29
2023-02-21T08:44:30.656Z,83.28
2023-02-21T08:46:59.287Z,80.34
2023-02-21T08:49:28.198Z,80.71
2023-02-21T08:51:56.178Z,78.96
2023-02-21T08:54:25.873Z,77.54
2023-02-21T08:56:55.378Z,77.88
2023-02-21T08:59:24.685Z,76.52
2023-02-21T09:01:54.788Z,77.47
2023-02-21T09:04:24.714Z,77.34
2023-02-21T09:06:52.888Z,76.44
2023-02-21T09:09:22.280Z,78.83
2023-02-21T09:11:50.617Z,79.04
2023-02-21T09:14:19.291Z,78.81
2023-02-21T09:16:48.166Z,79.07
2023-02-21T09:19:17.510Z,78.10
2023-02-21T09:21:48.275Z,78.64
2023-02-21T09:24:16.132Z,78.57
2023-02-21T09:26:46.487Z,78.07
2023-02-21T09:29:16.758Z,76.29
2023-02-21T09:31:47.251Z,76.06
2023-02-21T09:34:15.561Z,74.68
2023-02-21T09:36:47.686Z,73.75
2023-02-21T09:39:18.480Z,73.11
2023-02-21T09:41:49.210Z,72.84
2023-02-21T09:44:22.533Z,72.03
2023-02-21T09:46:52.272Z,71.80
2023-02-21T09:49:26.525Z,71.89
2023-02-21T09:51:59.933Z,72.21
2023-02-21T09:54:34.539Z,72.38
2023-02-21T09:57:07.843Z,72.82
2023-02-21T09:59:41.332Z,71.35
2023-02-21T10:02:26.282Z,71.25
2023-02-21T10:05:01.940Z,70.11
2023-02-21T10:07:38.831Z,70.02
2023-02-21T10:10:11.733Z,70.24
2023-02-21T10:12:42.604Z,69.04
2023-02-21T10:15:22.468Z,68.91
2023-02-21T10:17:56.352Z,67.72
2023-02-21T10:20:35.025Z,67.58
2023-02-21T10:23:07.166Z,66.47
2023-02-21T10:25:36.893Z,66.25
2023-02-21T10:28:06.083Z,67.06
2023-02-21T10:30:38.039Z,66.53
2023-02-21T10:33:08.528Z,67.56
2023-02-21T10:35:39.693Z,68.14
2023-02-21T10:38:11.707Z,68.54
2023-02-21T10:40:42.589Z,67.80
2023-02-21T10:43:13.296Z,67.44
2023-02-21T10:45:46.838Z,68.04
2023-02-21T10:48:15.597Z,68.49
2023-02-21T10:50:51.021Z,67.38
2023-02-21T10:53:31.104Z,68.57
2023-02-21T10:56:10.268Z,69.22
2023-02-21T10:58:43.591Z,69.17
2023-02-21T11:05:25.674Z,68.63
2023-02-21T11:08:01.069Z,67.92
2023-02-21T11:10:35.718Z,66.58
2023-02-21T11:13:07.864Z,66.40
2023-02-21T11:15:36.636Z,65.39
2023-02-21T11:18:08.988Z,65.03
2023-02-21T11:20:37.583Z,66.50
2023-02-21T11:23:22.470Z,65.88
2023-02-21T11:26:03.459Z,64.65
2023-02-21T11:28:32.524Z,64.55
2023-02-21T11:31:19.373Z,64.92
2023-02-21T11:33:57.317Z,65.78
2023-02-21T11:36:31.643Z,65.72
2023-02-21T11:39:06.795Z,65.23
2023-02-21T11:41:47.445Z,64.94
2023-02-21T11:44:30.268Z,65.33
2023-02-21T11:47:10.154Z,65.21
2023-02-21T11:49:52.209Z,64.48
2023-02-21T11:52:24.299Z,64.34
2023-02-21T11:54:52.748Z,65.17
2023-02-21T11:57:31.808Z,65.28
2023-02-21T12:00:08.220Z,64.36
2023-02-21T12:02:53.374Z,64.57
2023-02-21T12:05:46.168Z,64.49
2023-02-21T12:08:41.497Z,64.29
2023-02-21T12:11:20.795Z,63.85
2023-02-21T12:14:01.031Z,63.63
2023-02-21T12:16:38.396Z,63.44
2023-02-21T12:19:20.901Z,63.02
2023-02-21T12:22:05.627Z,63.20
2023-02-21T12:24:56.414Z,62.00
2023-02-21T12:27:30.715Z,61.66
2023-02-21T12:30:17.462Z,60.86
2023-02-21T12:33:17.693Z,60.66
2023-02-21T12:36:12.715Z,61.73
2023-02-21T12:38:51.397Z,61.31
2023-02-21T12:41:32.446Z,61.08
2023-02-21T12:44:15.069Z,60.63
2023-02-21T12:46:52.111Z,60.55
2023-02-21T12:49:28.257Z,60.90
2023-02-21T12:52:01.624Z,60.80
2023-02-21T12:54:41.838Z,60.79
2023-02-21T12:57:14.398Z,60.88
2023-02-21T12:59:53.591Z,62.36
2023-02-21T13:02:28.778Z,61.85
2023-02-21T13:05:02.747Z,61.19
2023-02-21T13:07:43.107Z,61.90
2023-02-21T13:10:18.139Z,62.76
2023-02-21T13:12:49.038Z,62.02
2023-02-21T13:15:22.182Z,62.18
2023-02-21T13:18:01.634Z,62.46
2023-02-21T13:20:35.336Z,62.38
2023-02-21T13:24:00.487Z,62.79
2023-02-21T13:26:37.669Z,61.78
2023-02-21T13:29:18.075Z,60.77
2023-02-21T13:31:49.531Z,61.46
2023-02-21T13:34:24.247Z,60.20
2023-02-21T13:36:54.263Z,61.27
2023-02-21T13:39:31.863Z,61.02
2023-02-21T13:42:07.316Z,60.70
2023-02-21T13:44:42.604Z,61.56
2023-02-21T13:47:20.588Z,62.09
2023-02-21T13:49:54.986Z,62.79
2023-02-21T13:52:56.146Z,62.11
2023-02-21T13:55:31.386Z,62.48
2023-02-21T13:58:33.134Z,61.37
2023-02-21T14:01:41.084Z,62.49
2023-02-21T14:05:02.252Z,63.12
2023-02-21T14:08:05.360Z,63.54
2023-02-21T14:10:42.469Z,63.47
2023-02-21T14:13:24.024Z,63.22
2023-02-21T14:15:59.371Z,63.26
2023-02-21T14:18:29.660Z,63.47
2023-02-21T14:20:59.162Z,63.65
2023-02-21T14:23:43.493Z,63.39
2023-02-21T14:26:46.662Z,63.12
2023-02-21T14:29:20.710Z,62.93
2023-02-21T14:31:58.939Z,63.20
2023-02-21T14:34:40.065Z,63.29
2023-02-21T14:37:16.199Z,63.38
2023-02-21T14:39:50.423Z,63.68
2023-02-21T14:42:35.693Z,63.83
2023-02-21T14:45:27.697Z,63.21
2023-02-21T14:48:35.549Z,63.56
2023-02-21T14:51:16.659Z,63.95
2023-02-21T14:54:02.609Z,64.11
2023-02-21T14:56:53.167Z,63.60
2023-02-21T14:59:53.386Z,64.08
2023-02-21T15:02:31.164Z,63.86
2023-02-21T15:05:04.784Z,63.72
2023-02-21T15:07:37.919Z,64.05
2023-02-21T15:10:15.401Z,64.74
2023-02-21T15:12:47.598Z,63.84
2023-02-21T15:15:20.770Z,64.12
2023-02-21T15:17:58.200Z,64.00
2023-02-21T15:20:30.105Z,64.49
2023-02-21T15:23:03.332Z,63.70
2023-02-21T15:25:35.432Z,64.25
2023-02-21T15:28:08.903Z,63.94
2023-02-21T15:30:41.281Z,64.27
2023-02-21T15:33:16.685Z,64.03
2023-02-21T15:35:48.034Z,63.62
2023-02-21T15:38:20.279Z,64.23
2023-02-21T15:40:48.753Z,64.05
2023-02-21T15:43:30.535Z,63.86
2023-02-21T15:46:02.659Z,63.32
2023-02-21T15:48:33.369Z,64.19
2023-02-21T15:51:09.299Z,63.81
2023-02-21T15:53:37.975Z,63.59
2023-02-21T15:56:22.717Z,64.06
2023-02-21T15:59:13.310Z,63.84
2023-02-21T16:01:41.847Z,65.12
2023-02-21T16:04:18.655Z,64.32
2023-02-21T16:06:50.555Z,64.40
2023-02-21T16:09:26.111Z,65.14
2023-02-21T16:11:59.224Z,65.59
2023-02-21T16:14:40.336Z,65.15
2023-02-21T16:17:26.654Z,65.43
2023-02-21T16:19:57.984Z,65.90
2023-02-21T16:22:53.854Z,66.08
2023-02-21T16:25:26.816Z,65.14
2023-02-21T16:27:58.563Z,66.04
2023-02-21T16:30:37.675Z,65.78
2023-02-21T16:33:06.965Z,66.46
2023-02-21T16:35:36.738Z,66.17
2023-02-21T16:38:11.214Z,66.15
2023-02-21T16:40:43.144Z,66.24
2023-02-21T16:43:18.951Z,66.79
2023-02-21T16:45:49.615Z,67.11
2023-02-21T16:48:21.694Z,67.33
2023-02-21T16:50:50.798Z,66.78
2023-02-21T16:53:22.592Z,67.24
2023-02-21T16:55:53.073Z,66.87
2023-02-21T16:58:26.502Z,67.09
2023-02-21T17:01:01.442Z,67.02
2023-02-21T17:03:30.910Z,67.91
2023-02-21T17:06:04.045Z,67.41
2023-02-21T17:08:35.379Z,67.32
2023-02-21T17:11:03.476Z,68.29
2023-02-21T17:13:32.781Z,67.62
2023-02-21T17:16:04.862Z,67.23
2023-02-21T17:18:34.082Z,67.11
2023-02-21T17:21:12.696Z,68.11
2023-02-21T17:23:43.542Z,67.94
2023-02-21T17:26:16.318Z,67.61
2023-02-21T17:28:44.703Z,68.41
2023-02-21T17:31:19.664Z,68.21
2023-02-21T17:33:48.427Z,67.85
2023-02-21T17:36:19.294Z,67.97
2023-02-21T17:38:48.804Z,68.59
2023-02-21T17:41:18.158Z,67.99
2023-02-21T17:43:48.303Z,67.77
2023-02-21T17:46:20.159Z,68.73
2023-02-21T17:48:49.951Z,67.78
2023-02-21T17:51:23.409Z,68.33
2023-02-21T17:53:54.427Z,68.46
2023-02-21T17:56:25.894Z,68.64
2023-02-21T17:58:57.321Z,68.89
2023-02-21T18:01:30.385Z,69.16
2023-02-21T18:04:01.369Z,68.85
2023-02-21T18:06:32.613Z,69.01
2023-02-21T18:09:03.088Z,68.68
2023-02-21T18:11:37.793Z,68.36
2023-02-21T18:14:07.395Z,68.57
2023-02-21T18:16:37.258Z,68.61
2023-02-21T18:19:06.044Z,68.93
2023-02-21T18:21:34.034Z,69.92
2023-02-21T18:24:02.207Z,69.35
2023-02-21T18:26:32.882Z,68.99
2023-02-21T18:29:04.551Z,69.10
2023-02-21T18:31:33.481Z,69.56
2023-02-21T18:34:03.314Z,69.77
2023-02-21T18:36:35.598Z,69.76
2023-02-21T18:39:07.425Z,69.38
2023-02-21T18:41:37.752Z,69.79
2023-02-21T18:44:07.710Z,69.93
2023-02-21T18:46:38.430Z,70.14
2023-02-21T18:49:13.885Z,70.21
2023-02-21T18:51:42.875Z,70.34
2023-02-21T18:54:11.374Z,70.08
2023-02-21T18:56:39.739Z,70.04
2023-02-21T18:59:07.851Z,70.31
2023-02-21T19:01:36.149Z,70.00
2023-02-21T19:04:05.456Z,70.01
2023-02-21T19:06:38.881Z,70.53
2023-02-21T19:09:08.575Z,70.43
2023-02-21T19:11:37.010Z,70.07
2023-02-21T19:14:08.797Z,69.51
2023-02-21T19:16:39.207Z,69.76
2023-02-21T19:19:09.183Z,69.51
2023-02-21T19:21:40.825Z,69.33
2023-02-21T19:24:10.199Z,69.28
2023-02-21T19:26:44.647Z,69.12
2023-02-21T19:29:13.139Z,69.01
2023-02-21T19:31:42.538Z,68.90
2023-02-21T19:34:11.616Z,69.12
2023-02-21T19:36:41.439Z,69.05
2023-02-21T19:39:11.675Z,69.63
2023-02-21T19:41:41.430Z,69.19
2023-02-21T19:44:09.874Z,68.91
2023-02-21T19:46:39.647Z,68.82
2023-02-21T19:49:17.476Z,68.59
2023-02-21T19:51:50.317Z,69.16
2023-02-21T19:54:21.280Z,69.18
2023-02-21T19:56:50.976Z,69.42
2023-02-21T19:59:19.658Z,68.89
2023-02-21T20:01:47.740Z,68.82
2023-02-21T20:04:18.628Z,69.04
2023-02-21T20:06:49.728Z,68.61
2023-02-21T20:09:20.774Z,68.77
2023-02-21T20:11:49.801Z,69.05
2023-02-21T20:14:19.006Z,68.78
2023-02-21T20:16:48.233Z,68.96
2023-02-21T20:19:16.719Z,68.68
2023-02-21T20:21:47.654Z,68.72
2023-02-21T20:24:17.147Z,69.73
2023-02-21T20:26:52.142Z,71.65
2023-02-21T20:29:21.327Z,68.96
2023-02-21T20:31:50.287Z,68.45
2023-02-21T20:34:18.476Z,68.87
2023-02-21T20:36:48.073Z,68.55
2023-02-21T20:39:20.970Z,67.90
2023-02-21T20:41:51.988Z,68.99
2023-02-21T20:44:20.126Z,68.71
2023-02-21T20:46:48.768Z,68.37
2023-02-21T20:49:17.212Z,68.19
2023-02-21T20:51:46.043Z,68.62
2023-02-21T20:54:19.738Z,68.74
2023-02-21T20:56:54.246Z,67.12
2023-02-21T20:59:26.762Z,66.90
2023-02-21T21:01:56.253Z,67.17
2023-02-21T21:04:26.900Z,67.89
2023-02-21T21:06:56.794Z,67.77
2023-02-21T21:09:34.577Z,68.34
2023-02-21T21:12:07.336Z,68.50
2023-02-21T21:14:39.617Z,68.71
2023-02-21T21:17:12.741Z,69.19
2023-02-21T21:19:44.948Z,68.20
2023-02-21T21:22:17.060Z,68.16
2023-02-21T21:24:45.563Z,68.12
2023-02-21T21:27:22.000Z,68.32
2023-02-21T21:29:52.586Z,68.29
2023-02-21T21:32:24.291Z,68.97
2023-02-21T21:34:55.418Z,68.38
2023-02-21T21:37:26.533Z,69.00
2023-02-21T21:39:56.522Z,68.88
2023-02-21T21:42:32.580Z,68.82
2023-02-21T21:45:02.994Z,68.67
2023-02-21T21:47:37.190Z,68.65
2023-02-21T21:50:07.217Z,69.43
2023-02-21T21:52:42.030Z,68.58
2023-02-21T21:55:17.340Z,68.81
2023-02-21T21:57:53.406Z,69.21
2023-02-21T22:00:25.163Z,68.53
2023-02-21T22:02:57.336Z,68.97
2023-02-21T22:05:28.543Z,68.46
2023-02-21T22:07:57.285Z,68.70
2023-02-21T22:10:27.280Z,69.10
2023-02-21T22:13:00.793Z,69.04
2023-02-21T22:15:31.757Z,69.62
2023-02-21T22:18:04.083Z,69.38
2023-02-21T22:20:32.592Z,69.52
2023-02-21T22:23:01.314Z,69.46
2023-02-21T22:25:32.058Z,69.73
2023-02-21T22:28:05.614Z,69.27
2023-02-21T22:30:33.801Z,69.20
2023-02-21T22:33:02.226Z,69.66
2023-02-21T22:35:30.362Z,69.11
2023-02-21T22:38:02.171Z,69.23
2023-02-21T22:40:35.895Z,69.21
2023-02-21T22:43:08.906Z,68.85
2023-02-21T22:45:38.591Z,68.53
2023-02-21T22:48:09.939Z,68.73
2023-02-21T22:50:38.109Z,68.96
2023-02-21T22:53:13.035Z,68.10
2023-02-21T22:55:41.177Z,68.83
2023-02-21T22:58:17.332Z,68.06
2023-02-21T23:00:45.764Z,67.34
2023-02-21T23:03:18.218Z,67.21
2023-02-21T23:05:49.057Z,66.97
2023-02-21T23:08:21.120Z,67.20
2023-02-21T23:10:51.509Z,67.28
2023-02-21T23:13:22.967Z,67.15
2023-02-21T23:15:53.229Z,67.08
2023-02-21T23:18:23.548Z,67.83
2023-02-21T23:20:53.634Z,67.65
2023-02-21T23:23:22.545Z,67.33
2023-02-21T23:25:50.452Z,67.74
2023-02-21T23:28:20.453Z,67.14
2023-02-21T23:30:49.732Z,67.05
2023-02-21T23:33:22.795Z,67.19
2023-02-21T23:35:52.364Z,66.68
2023-02-21T23:38:23.107Z,67.37
2023-02-21T23:40:56.475Z,67.87
2023-02-21T23:43:29.325Z,67.81
2023-02-21T23:45:59.217Z,67.71
2023-02-21T23:48:27.347Z,67.84
2023-02-21T23:50:58.341Z,67.44
2023-02-21T23:53:31.717Z,67.71
2023-02-21T23:56:01.069Z,67.96
2023-02-21T23:58:32.524Z,68.94
